Time;durP1;ratioP1;P1;durP2;ratioP2;P2;SDS_P1;SDS_P2;PMS_P1;PMS_P2;Temp;Humidity;BMP_temperature;BMP_pressure;BME280_temperature;BME280_humidity;BME280_pressure;Samples;Min_cycle;Max_cycle;Signal;HPM_P1;HPM_P2
2022/09/22 00:01:43;;;;;;;2.60;1.80;;;;;;;7.90;100.00;102522.59;2615242;36;20518;-55
2022/09/22 00:04:13;;;;;;;3.50;2.17;;;;;;;7.85;100.00;102519.28;2614861;31;20026;-54
2022/09/22 00:06:46;;;;;;;3.42;2.10;;;;;;;7.84;100.00;102520.22;2614822;34;20038;-59
2022/09/22 00:09:17;;;;;;;2.58;1.80;;;;;;;7.78;100.00;102517.88;2614314;36;20486;-55
2022/09/22 00:11:47;;;;;;;2.90;1.63;;;;;;;7.80;100.00;102518.66;2614752;36;20041;-57
2022/09/22 00:14:19;;;;;;;2.83;1.80;;;;;;;7.80;100.00;102521.31;2615252;36;20041;-55
2022/09/22 00:16:51;;;;;;;4.10;1.90;;;;;;;7.68;100.00;102512.09;2614534;36;20023;-53
2022/09/22 00:19:23;;;;;;;3.03;1.83;;;;;;;7.65;100.00;102507.75;2614802;36;20039;-55
2022/09/22 00:21:51;;;;;;;6.20;2.05;;;;;;;7.58;100.00;102513.50;2614053;36;20594;-53
2022/09/22 00:24:22;;;;;;;3.67;2.30;;;;;;;7.66;100.00;102514.00;2616144;36;20392;-56
2022/09/22 00:26:51;;;;;;;5.00;2.05;;;;;;;7.59;100.00;102513.41;2613020;36;20038;-54
2022/09/22 00:29:19;;;;;;;3.75;1.65;;;;;;;7.62;100.00;102507.03;2615568;36;20041;-53
2022/09/22 00:31:51;;;;;;;2.67;1.60;;;;;;;7.63;100.00;102512.31;2614341;36;20061;-58
2022/09/22 00:34:21;;;;;;;4.43;1.70;;;;;;;7.62;100.00;102509.72;2615109;36;20303;-53
2022/09/22 00:36:50;;;;;;;3.65;1.50;;;;;;;7.61;100.00;102503.50;2610608;36;20038;-57
2022/09/22 00:39:19;;;;;;;3.35;1.63;;;;;;;7.60;100.00;102499.06;2613673;31;20061;-53
2022/09/22 00:41:49;;;;;;;;;;;;;;;7.65;100.00;102496.16;2613935;36;20443;-54
2022/09/22 00:44:37;;;;;;;4.57;1.90;;;;;;;7.61;100.00;102495.47;2614484;36;20404;-55
2022/09/22 00:47:32;;;;;;;3.28;1.70;;;;;;;7.47;100.00;102496.13;2615595;36;20030;-55
2022/09/22 00:50:07;;;;;;;3.55;1.83;;;;;;;7.36;100.00;102496.66;2614522;36;20034;-56
2022/09/22 00:52:38;;;;;;;3.38;1.80;;;;;;;7.31;100.00;102487.97;2614090;36;20038;-56
2022/09/22 00:55:13;;;;;;;3.13;1.60;;;;;;;7.25;100.00;102487.41;2615564;36;20022;-53
2022/09/22 00:57:43;;;;;;;4.13;1.98;;;;;;;7.25;100.00;102488.28;2616445;31;20519;-55
2022/09/22 01:00:13;;;;;;;4.45;1.70;;;;;;;7.26;100.00;102482.00;2615257;36;20023;-56
2022/09/22 01:02:56;;;;;;;4.55;2.03;;;;;;;7.23;100.00;102483.94;2616113;47;20034;-55
2022/09/22 01:05:26;;;;;;;3.67;1.73;;;;;;;7.10;100.00;102475.66;2616265;31;20026;-55
2022/09/22 01:07:54;;;;;;;3.28;2.00;;;;;;;7.32;100.00;102483.50;2615139;36;20484;-55
2022/09/22 01:10:25;;;;;;;5.50;1.92;;;;;;;7.24;100.00;102473.13;2616060;36;20026;-57
2022/09/22 01:13:03;;;;;;;2.78;1.75;;;;;;;7.16;100.00;102472.66;2615827;36;20674;-53
2022/09/22 01:15:40;;;;;;;4.55;1.67;;;;;;;7.18;100.00;102470.75;2613905;36;20106;-51
2022/09/22 01:18:21;;;;;;;3.17;1.50;;;;;;;7.21;100.00;102472.44;2614185;36;20046;-55
2022/09/22 01:21:15;;;;;;;4.38;1.80;;;;;;;7.27;100.00;102462.28;2614096;36;20437;-57
2022/09/22 01:24:28;;;;;;;5.20;1.80;;;;;;;7.30;100.00;102466.63;2614425;36;20609;-52
2022/09/22 01:27:24;;;;;;;2.92;1.73;;;;;;;7.14;100.00;102469.16;2615962;36;20035;-52
2022/09/22 01:30:12;;;;;;;2.60;1.83;;;;;;;7.09;100.00;102464.03;2615628;36;20034;-58
2022/09/22 01:32:46;;;;;;;5.57;2.10;;;;;;;6.94;100.00;102454.09;2615525;36;20034;-57
2022/09/22 01:35:25;;;;;;;2.30;1.40;;;;;;;6.89;100.00;102458.78;2614926;36;20023;-56
2022/09/22 01:38:05;;;;;;;4.60;1.67;;;;;;;6.91;100.00;102456.91;2615449;36;20029;-53
2022/09/22 01:40:38;;;;;;;3.30;1.90;;;;;;;6.91;100.00;102463.13;2615411;36;20042;-53
2022/09/22 01:43:15;;;;;;;2.65;1.63;;;;;;;6.93;100.00;102455.88;2615373;36;20027;-55
2022/09/22 01:45:49;;;;;;;4.00;1.30;;;;;;;6.74;100.00;102460.38;2614360;36;20120;-54
2022/09/22 01:48:22;;;;;;;2.90;1.30;;;;;;;6.57;100.00;102461.16;2615509;36;20039;-56
2022/09/22 01:50:55;;;;;;;3.55;1.60;;;;;;;6.58;100.00;102454.84;2615504;36;20023;-52
2022/09/22 01:53:29;;;;;;;2.83;1.58;;;;;;;6.56;100.00;102449.56;2616525;36;20031;-53
2022/09/22 01:56:04;;;;;;;2.47;1.30;;;;;;;6.61;100.00;102450.25;2614359;36;20034;-56
2022/09/22 01:58:35;;;;;;;3.47;1.50;;;;;;;6.63;100.00;102448.34;2616121;31;20106;-52
2022/09/22 02:01:10;;;;;;;4.18;1.48;;;;;;;6.65;100.00;102448.28;2614804;36;20039;-54
2022/09/22 02:03:42;;;;;;;3.90;1.58;;;;;;;6.70;100.00;102448.06;2615533;36;20046;-56
2022/09/22 02:06:15;;;;;;;4.95;1.50;;;;;;;6.71;100.00;102448.00;2613716;36;20558;-54
2022/09/22 02:08:50;;;;;;;2.92;1.75;;;;;;;6.76;100.00;102437.09;2616122;36;20034;-55
2022/09/22 02:11:19;;;;;;;3.92;1.83;;;;;;;6.69;100.00;102425.81;2615453;36;20542;-56
2022/09/22 02:13:48;;;;;;;3.67;1.93;;;;;;;6.68;100.00;102428.56;2616463;31;20594;-55
2022/09/22 02:16:20;;;;;;;;;;;;;;;6.66;100.00;102420.59;2615837;31;20531;-54
2022/09/22 02:18:52;;;;;;;4.88;2.17;;;;;;;6.59;100.00;102430.69;2615049;36;19943;-56
2022/09/22 02:21:22;;;;;;;4.57;1.70;;;;;;;6.52;100.00;102423.91;2615687;36;20046;-55
2022/09/22 02:23:51;;;;;;;2.72;1.90;;;;;;;6.56;100.00;102419.28;2616378;36;20447;-58
2022/09/22 02:26:23;;;;;;;2.35;1.70;;;;;;;6.48;100.00;102422.34;2614683;36;20037;-55
2022/09/22 02:28:54;;;;;;;2.92;1.67;;;;;;;6.52;100.00;102418.56;2615273;36;20054;-56
2022/09/22 02:31:27;;;;;;;4.15;1.80;;;;;;;6.53;100.00;102414.09;2614983;36;20026;-55
2022/09/22 02:33:57;;;;;;;3.15;1.70;;;;;;;6.48;100.00;102403.59;2615375;36;20034;-53
2022/09/22 02:36:45;;;;;;;4.97;2.72;;;;;;;6.42;100.00;102406.53;2614895;36;20027;-58
2022/09/22 02:39:19;;;;;;;4.18;2.58;;;;;;;6.37;100.00;102406.75;2615711;31;20039;-56
2022/09/22 02:41:59;;;;;;;2.80;1.88;;;;;;;6.41;100.00;102410.19;2614570;36;20034;-54
2022/09/22 02:44:35;;;;;;;3.95;2.65;;;;;;;6.36;100.00;102412.19;2615397;31;20034;-56
2022/09/22 02:47:11;;;;;;;3.22;1.95;;;;;;;6.37;100.00;102408.56;2615864;36;20038;-54
2022/09/22 02:49:41;;;;;;;3.72;2.38;;;;;;;6.41;100.00;102408.38;2615373;36;20034;-55
2022/09/22 02:52:11;;;;;;;4.10;2.60;;;;;;;6.42;100.00;102402.09;2614393;31;20471;-55
2022/09/22 02:54:39;;;;;;;3.63;1.92;;;;;;;6.36;100.00;102402.38;2614941;31;20122;-52
2022/09/22 02:57:08;;;;;;;6.30;1.92;;;;;;;6.37;100.00;102400.56;2615733;36;20027;-53
2022/09/22 02:59:37;;;;;;;4.60;1.92;;;;;;;6.47;100.00;102409.88;2615137;36;20282;-55
2022/09/22 03:02:08;;;;;;;2.13;1.50;;;;;;;6.37;100.00;102403.22;2615728;36;20026;-56
2022/09/22 03:04:36;;;;;;;2.88;1.80;;;;;;;6.35;100.00;102397.09;2616188;36;20427;-55
2022/09/22 03:07:05;;;;;;;5.63;1.50;;;;;;;6.44;100.00;102399.34;2614418;36;20039;-55
2022/09/22 03:09:34;;;;;;;3.00;2.00;;;;;;;6.45;100.00;102390.38;2615043;36;20536;-50
2022/09/22 03:12:03;;;;;;;3.55;1.80;;;;;;;6.45;100.00;102391.25;2615701;36;20049;-53
2022/09/22 03:14:31;;;;;;;3.58;1.67;;;;;;;6.32;100.00;102393.59;2615040;36;20045;-53
2022/09/22 03:16:59;;;;;;;2.58;1.48;;;;;;;6.30;100.00;102391.94;2614931;36;20034;-53
2022/09/22 03:19:30;;;;;;;3.08;1.27;;;;;;;6.36;100.00;102391.69;2614820;36;20038;-57
2022/09/22 03:21:59;;;;;;;2.75;1.60;;;;;;;6.30;100.00;102387.47;2615425;36;20045;-56
2022/09/22 03:24:27;;;;;;;5.97;1.77;;;;;;;6.32;100.00;102388.25;2614685;36;20042;-54
2022/09/22 03:26:55;;;;;;;3.88;1.60;;;;;;;6.36;100.00;102385.44;2614889;36;20038;-55
2022/09/22 03:29:24;;;;;;;2.83;1.80;;;;;;;6.41;100.00;102386.97;2614123;36;20065;-55
2022/09/22 03:31:52;;;;;;;3.75;2.03;;;;;;;6.29;100.00;102377.72;2614963;36;20042;-55
2022/09/22 03:34:20;;;;;;;3.22;1.42;;;;;;;6.28;100.00;102383.13;2614063;36;20038;-56
2022/09/22 03:36:51;;;;;;;5.00;2.13;;;;;;;6.24;100.00;102378.84;2613044;36;20023;-54
2022/09/22 03:39:20;;;;;;;3.25;1.70;;;;;;;6.26;100.00;102380.53;2612297;36;20055;-54
2022/09/22 03:41:49;;;;;;;4.13;1.90;;;;;;;6.28;100.00;102378.63;2614291;31;20041;-52
2022/09/22 03:44:17;;;;;;;4.07;1.80;;;;;;;6.23;100.00;102380.66;2614560;36;20061;-55
2022/09/22 03:46:45;;;;;;;2.70;1.70;;;;;;;6.24;100.00;102378.84;2614557;36;20662;-52
2022/09/22 03:49:14;;;;;;;2.33;1.70;;;;;;;6.24;100.00;102382.41;2614793;36;20586;-53
2022/09/22 03:51:42;;;;;;;3.92;1.98;;;;;;;6.18;100.00;102388.00;2614257;36;20547;-52
2022/09/22 03:54:14;;;;;;;3.00;1.70;;;;;;;6.32;100.00;102385.59;2615014;36;20571;-56
2022/09/22 03:56:42;;;;;;;3.55;1.80;;;;;;;6.21;100.00;102377.19;2615187;36;20080;-53
2022/09/22 03:59:11;;;;;;;3.58;1.70;;;;;;;6.23;100.00;102375.31;2615049;36;20027;-54
2022/09/22 04:01:39;;;;;;;2.72;1.90;;;;;;;6.25;100.00;102380.59;2614705;36;20057;-52
2022/09/22 04:04:08;;;;;;;4.07;1.60;;;;;;;6.27;100.00;102376.94;2613501;36;20439;-51
2022/09/22 04:06:37;;;;;;;4.10;2.10;;;;;;;6.30;100.00;102370.53;2615329;36;20609;-58
2022/09/22 04:09:06;;;;;;;6.13;3.03;;;;;;;6.31;100.00;102370.47;2614447;36;20355;-52
2022/09/22 04:11:37;;;;;;;6.03;2.53;;;;;;;6.29;100.00;102367.00;2614250;36;20034;-54
2022/09/22 04:14:06;;;;;;;4.30;2.30;;;;;;;6.20;100.00;102361.22;2614717;36;20910;-56
2022/09/22 04:16:34;;;;;;;3.38;2.33;;;;;;;6.11;100.00;102358.03;2615515;36;20038;-56
2022/09/22 04:19:03;;;;;;;3.85;2.47;;;;;;;6.21;100.00;102355.78;2614393;36;20022;-56
2022/09/22 04:21:32;;;;;;;3.83;2.08;;;;;;;6.27;100.00;102355.53;2615235;36;20423;-53
2022/09/22 04:24:00;;;;;;;5.53;2.63;;;;;;;6.12;100.00;102356.22;2614355;36;20034;-57
2022/09/22 04:26:28;;;;;;;8.05;2.58;;;;;;;6.19;100.00;102359.50;2614527;31;20041;-54
2022/09/22 04:28:59;;;;;;;5.40;2.80;;;;;;;6.10;100.00;102355.44;2614547;36;20030;-54
2022/09/22 04:31:28;;;;;;;6.53;3.38;;;;;;;6.13;100.00;102355.28;2614188;31;20026;-53
2022/09/22 04:33:56;;;;;;;8.38;3.60;;;;;;;6.13;100.00;102349.94;2614149;36;20035;-55
2022/09/22 04:36:24;;;;;;;7.97;3.88;;;;;;;6.05;100.00;102355.66;2615075;36;20519;-57
2022/09/22 04:38:54;;;;;;;6.38;3.08;;;;;;;6.06;100.00;102353.84;2614033;36;20087;-57
2022/09/22 04:41:22;;;;;;;5.57;3.08;;;;;;;6.16;100.00;102347.13;2614755;31;20417;-53
2022/09/22 04:43:50;;;;;;;6.40;3.10;;;;;;;6.20;100.00;102348.72;2614453;36;20583;-58
2022/09/22 04:46:21;;;;;;;4.22;2.85;;;;;;;6.11;100.00;102352.69;2614602;36;20695;-53
2022/09/22 04:48:50;;;;;;;4.38;2.78;;;;;;;6.11;100.00;102355.38;2614889;36;20042;-57
2022/09/22 04:51:18;;;;;;;3.67;2.50;;;;;;;6.14;100.00;102343.66;2614414;36;20045;-55
2022/09/22 04:53:46;;;;;;;5.80;2.38;;;;;;;6.11;100.00;102351.81;2613814;36;20596;-54
2022/09/22 04:56:15;;;;;;;3.67;2.20;;;;;;;6.06;100.00;102357.38;2614016;36;20041;-56
2022/09/22 04:58:43;;;;;;;3.85;2.40;;;;;;;5.95;100.00;102355.16;2613805;36;20042;-57
2022/09/22 05:01:12;;;;;;;3.20;2.25;;;;;;;6.00;100.00;102356.78;2613096;36;20538;-55
2022/09/22 05:03:43;;;;;;;6.43;2.40;;;;;;;6.00;100.00;102360.31;2611252;36;20027;-56
2022/09/22 05:06:11;;;;;;;3.90;2.50;;;;;;;5.97;100.00;102358.66;2613964;36;20543;-59
2022/09/22 05:08:39;;;;;;;2.78;2.08;;;;;;;5.92;100.00;102357.97;2611542;36;20034;-55
2022/09/22 05:11:08;;;;;;;4.25;2.53;;;;;;;5.97;100.00;102357.78;2613597;36;20038;-56
2022/09/22 05:13:37;;;;;;;4.82;2.65;;;;;;;5.92;100.00;102357.13;2614504;31;20035;-56
2022/09/22 05:16:07;;;;;;;5.13;2.25;;;;;;;5.89;100.00;102358.13;2610956;36;20034;-55
2022/09/22 05:18:35;;;;;;;3.72;2.60;;;;;;;5.88;100.00;102360.84;2614145;36;20034;-54
2022/09/22 05:21:07;;;;;;;7.00;2.92;;;;;;;5.99;100.00;102365.75;2613161;36;20039;-53
2022/09/22 05:23:35;;;;;;;8.93;3.70;;;;;;;5.97;100.00;102363.13;2613592;36;20290;-55
2022/09/22 05:26:03;;;;;;;6.30;3.80;;;;;;;6.06;100.00;102364.53;2611655;31;20057;-59
2022/09/22 05:28:32;;;;;;;6.53;3.53;;;;;;;6.10;100.00;102352.75;2611245;36;20291;-56
2022/09/22 05:31:00;;;;;;;6.38;3.13;;;;;;;5.98;100.00;102354.19;2614640;36;20022;-54
2022/09/22 05:33:29;;;;;;;5.22;3.22;;;;;;;6.06;100.00;102356.50;2614267;31;20057;-52
2022/09/22 05:35:57;;;;;;;4.13;2.90;;;;;;;6.05;100.00;102362.78;2614909;36;20413;-56
2022/09/22 05:38:28;;;;;;;3.63;2.85;;;;;;;6.12;100.00;102361.56;2614370;36;20081;-54
2022/09/22 05:40:57;;;;;;;4.55;3.13;;;;;;;6.13;100.00;102357.97;2614768;36;20038;-57
2022/09/22 05:43:25;;;;;;;4.68;3.17;;;;;;;6.18;100.00;102360.41;2615481;36;20030;-56
2022/09/22 05:45:53;;;;;;;6.43;3.60;;;;;;;6.18;100.00;102360.41;2616069;36;20041;-56
2022/09/22 05:48:22;;;;;;;6.07;3.10;;;;;;;6.20;100.00;102364.78;2614697;36;20031;-53
2022/09/22 05:50:50;;;;;;;5.63;3.10;;;;;;;6.24;100.00;102366.38;2616228;36;20037;-51
2022/09/22 05:53:18;;;;;;;5.63;3.03;;;;;;;6.29;100.00;102368.81;2614298;36;20069;-57
2022/09/22 05:55:49;;;;;;;7.63;3.50;;;;;;;6.27;100.00;102355.53;2616080;36;20026;-57
2022/09/22 05:58:18;;;;;;;5.57;3.38;;;;;;;6.27;100.00;102363.56;2615386;31;20299;-54
2022/09/22 06:00:46;;;;;;;6.43;3.35;;;;;;;6.27;100.00;102363.56;2615530;31;20037;-53
2022/09/22 06:03:14;;;;;;;5.05;3.50;;;;;;;6.45;100.00;102364.50;2615732;36;20037;-56
2022/09/22 06:05:46;;;;;;;5.90;3.88;;;;;;;6.54;100.00;102357.84;2616024;36;20034;-58
2022/09/22 06:08:14;;;;;;;6.43;3.92;;;;;;;6.55;100.00;102354.22;2616284;36;20023;-57
2022/09/22 06:10:44;;;;;;;6.38;3.70;;;;;;;6.56;100.00;102360.44;2614974;36;20054;-52
2022/09/22 06:13:14;;;;;;;6.53;3.83;;;;;;;6.46;100.00;102352.88;2616189;36;20060;-53
2022/09/22 06:15:47;;;;;;;6.10;3.30;;;;;;;6.39;100.00;102359.44;2616050;36;20034;-56
2022/09/22 06:18:16;;;;;;;5.90;3.63;;;;;;;6.49;100.00;102366.09;2615283;36;20392;-58
2022/09/22 06:20:46;;;;;;;5.95;4.00;;;;;;;6.52;100.00;102365.06;2615566;36;20547;-56
2022/09/22 06:23:15;;;;;;;5.53;3.53;;;;;;;6.53;100.00;102368.63;2614539;36;20436;-55
2022/09/22 06:25:44;;;;;;;6.65;3.65;;;;;;;6.62;100.00;102360.16;2615531;31;20122;-53
2022/09/22 06:28:16;;;;;;;8.00;3.80;;;;;;;6.70;100.00;102363.34;2615379;36;20800;-57
2022/09/22 06:30:44;;;;;;;8.55;4.35;;;;;;;6.82;100.00;102361.88;2609131;36;20855;-57
2022/09/22 06:33:13;;;;;;;7.22;4.10;;;;;;;6.86;100.00;102363.47;2614821;31;20155;-52
2022/09/22 06:35:44;;;;;;;7.10;3.80;;;;;;;6.95;100.00;102363.00;2611661;36;20609;-55
2022/09/22 06:38:15;;;;;;;8.02;4.22;;;;;;;7.10;100.00;102360.50;2604543;31;20057;-53
2022/09/22 06:40:44;;;;;;;7.43;4.70;;;;;;;7.20;100.00;102356.44;2612860;36;20054;-56
2022/09/22 06:43:21;;;;;;;9.48;4.57;;;;;;;7.31;100.00;102359.41;2613962;36;20062;-56
2022/09/22 06:45:50;;;;;;;5.95;4.00;;;;;;;7.37;100.00;102356.41;2611743;36;20037;-57
2022/09/22 06:48:22;;;;;;;;;;;;;;;7.46;100.00;102364.94;2613626;36;20427;-54
2022/09/22 06:50:52;;;;;;;7.35;3.97;;;;;;;7.57;100.00;102367.94;2614457;31;20002;-52
2022/09/22 06:53:23;;;;;;;7.60;3.72;;;;;;;7.66;100.00;102364.78;2614528;36;20034;-55
2022/09/22 06:55:51;;;;;;;7.43;3.85;;;;;;;7.70;100.00;102369.03;2614286;36;20546;-53
2022/09/22 06:58:24;;;;;;;6.93;3.47;;;;;;;7.79;100.00;102370.34;2615619;31;20026;-56
2022/09/22 07:00:53;;;;;;;6.30;4.10;;;;;;;7.89;100.00;102368.94;2614962;36;20037;-54
2022/09/22 07:03:25;;;;;;;4.85;3.42;;;;;;;7.97;100.00;102367.66;2615917;36;20030;-58
2022/09/22 07:05:55;;;;;;;6.13;3.78;;;;;;;8.09;100.00;102361.63;2614217;36;20031;-54
2022/09/22 07:08:24;;;;;;;7.43;4.13;;;;;;;8.19;100.00;102359.31;2614796;36;20635;-54
2022/09/22 07:10:57;;;;;;;7.95;4.70;;;;;;;8.31;100.00;102353.28;2614810;36;20041;-56
2022/09/22 07:13:29;;;;;;;6.65;4.55;;;;;;;8.45;100.00;102357.03;2615390;36;20034;-55
2022/09/22 07:16:01;;;;;;;9.95;4.93;;;;;;;8.60;100.00;102356.19;2615157;36;20066;-55
2022/09/22 07:18:30;;;;;;;10.38;5.00;;;;;;;8.71;100.00;102352.88;2612252;36;20029;-58
2022/09/22 07:21:03;;;;;;;12.45;6.95;;;;;;;8.90;100.00;102358.06;2615048;31;20623;-58
2022/09/22 07:23:34;;;;;;;11.95;7.43;;;;;;;9.05;100.00;102354.47;2614146;36;20117;-58
2022/09/22 07:26:03;;;;;;;9.73;6.20;;;;;;;9.25;100.00;102347.09;2613069;36;20033;-56
2022/09/22 07:28:36;;;;;;;9.52;5.88;;;;;;;9.44;100.00;102358.47;2615729;36;20026;-58
2022/09/22 07:31:05;;;;;;;7.88;6.05;;;;;;;9.64;100.00;102359.09;2611648;36;20554;-59
2022/09/22 07:33:34;;;;;;;8.80;5.55;;;;;;;9.86;100.00;102344.34;2612623;36;20632;-55
2022/09/22 07:36:07;;;;;;;8.77;5.87;;;;;;;10.06;100.00;102351.19;2613020;36;20041;-57
2022/09/22 07:38:36;;;;;;;8.45;5.50;;;;;;;10.28;100.00;102348.00;2604708;36;20639;-56
2022/09/22 07:41:06;;;;;;;14.60;6.35;;;;;;;10.47;100.00;102343.19;2613875;36;20042;-58
2022/09/22 07:43:37;;;;;;;9.35;5.75;;;;;;;10.64;100.00;102341.22;2614586;36;20038;-56
2022/09/22 07:46:07;;;;;;;10.38;5.80;;;;;;;10.82;100.00;102340.03;2614484;36;20023;-56
2022/09/22 07:48:36;;;;;;;12.88;6.50;;;;;;;11.02;100.00;102332.44;2614464;36;20041;-57
2022/09/22 07:51:04;;;;;;;9.82;6.18;;;;;;;11.21;100.00;102338.31;2613336;36;20039;-58
2022/09/22 07:53:33;;;;;;;11.18;6.15;;;;;;;11.35;100.00;102333.81;2611792;36;20069;-56
2022/09/22 07:56:08;;;;;;;18.40;6.28;;;;;;;11.62;100.00;102333.75;2614842;31;20556;-55
2022/09/22 07:58:40;;;;;;;9.88;6.30;;;;;;;11.91;100.00;102326.31;2615379;36;20042;-56
2022/09/22 08:01:09;;;;;;;9.73;5.15;;;;;;;12.07;100.00;102323.41;2613540;36;20046;-57
2022/09/22 08:03:38;;;;;;;11.18;5.32;;;;;;;12.21;100.00;102316.16;2615029;36;20041;-58
2022/09/22 08:06:11;;;;;;;11.35;5.45;;;;;;;12.52;100.00;102316.63;2614509;36;20058;-58
2022/09/22 08:08:41;;;;;;;9.43;5.32;;;;;;;12.70;100.00;102314.38;2614941;36;20436;-59
2022/09/22 08:11:11;;;;;;;13.13;5.30;;;;;;;12.94;100.00;102315.25;2615175;36;20428;-58
2022/09/22 08:13:45;;;;;;;13.00;4.78;;;;;;;13.05;100.00;102317.13;2615477;36;20065;-56
2022/09/22 08:16:16;;;;;;;8.90;4.22;;;;;;;13.38;100.00;102306.56;2615189;36;20125;-57
2022/09/22 08:18:45;;;;;;;6.63;4.60;;;;;;;13.60;100.00;102305.75;2615753;36;20073;-56
2022/09/22 08:21:17;;;;;;;10.05;4.57;;;;;;;13.79;100.00;102307.88;2615732;31;20029;-57
2022/09/22 08:23:45;;;;;;;8.52;4.95;;;;;;;14.02;100.00;102311.47;2615443;36;20034;-57
2022/09/22 08:26:14;;;;;;;11.90;4.50;;;;;;;14.08;100.00;102310.13;2612999;36;20026;-56
2022/09/22 08:28:45;;;;;;;7.70;4.18;;;;;;;14.41;100.00;102306.50;2614669;36;20029;-58
2022/09/22 08:31:16;;;;;;;12.45;4.07;;;;;;;14.38;100.00;102301.31;2615332;36;20030;-58
2022/09/22 08:33:44;;;;;;;9.60;2.60;;;;;;;14.49;100.00;102303.19;2614979;36;20065;-59
2022/09/22 08:36:13;;;;;;;11.00;4.00;;;;;;;14.90;100.00;102301.59;2614044;31;20038;-58
2022/09/22 08:38:41;;;;;;;6.10;3.17;;;;;;;14.94;100.00;102313.88;2611975;36;20035;-57
2022/09/22 08:41:20;;;;;;;8.18;2.75;;;;;;;14.90;100.00;102304.31;2613655;36;20038;-59
2022/09/22 08:43:54;;;;;;;5.20;2.47;;;;;;;14.83;100.00;102294.97;2612199;36;20547;-56
2022/09/22 08:46:27;;;;;;;8.48;2.25;;;;;;;15.07;100.00;102301.03;2611401;36;20154;-58
2022/09/22 08:51:54;;;;;;;4.25;1.90;;;;;;;15.35;100.00;102301.38;2612498;36;20042;-59
2022/09/22 08:54:26;;;;;;;7.63;2.20;;;;;;;15.47;100.00;102299.44;2611696;36;20611;-58
2022/09/22 08:57:15;;;;;;;3.03;1.70;;;;;;;15.27;100.00;102295.75;2612318;36;20038;-59
2022/09/22 08:59:53;;;;;;;7.90;1.50;;;;;;;15.40;100.00;102309.13;2612334;36;20574;-58
2022/09/22 09:02:40;;;;;;;3.50;1.70;;;;;;;15.60;100.00;102301.97;2603567;36;20039;-59
2022/09/22 09:05:45;;;;;;;3.50;1.90;;;;;;;15.70;100.00;102297.44;2611609;36;20079;-57
2022/09/22 09:08:40;;;;;;;6.72;2.35;;;;;;;16.19;100.00;102302.28;2611484;36;20057;-57
2022/09/22 09:11:20;;;;;;;3.17;1.70;;;;;;;16.34;100.00;102286.44;2612154;36;20034;-57
2022/09/22 09:14:02;;;;;;;5.93;1.80;;;;;;;16.39;100.00;102290.47;2612959;36;20162;-59
2022/09/22 09:16:50;;;;;;;6.75;1.45;;;;;;;16.36;100.00;102282.59;2611789;36;20034;-57
2022/09/22 09:19:21;;;;;;;4.82;1.42;;;;;;;16.49;100.00;102287.78;2610850;31;20452;-59
2022/09/22 09:21:53;;;;;;;4.63;1.73;;;;;;;16.59;100.00;102287.78;2612918;36;20038;-59
2022/09/22 09:24:31;;;;;;;5.18;1.58;;;;;;;16.67;100.00;102287.94;2612114;36;20041;-58
2022/09/22 09:27:08;;;;;;;2.17;1.40;;;;;;;16.75;100.00;102289.94;2613185;36;20027;-57
2022/09/22 09:29:42;;;;;;;6.95;1.70;;;;;;;16.91;100.00;102282.09;2613465;31;20567;-59
2022/09/22 09:32:22;;;;;;;5.63;1.55;;;;;;;16.85;100.00;102282.66;2613104;36;20638;-59
2022/09/22 09:34:51;;;;;;;6.68;2.22;;;;;;;16.98;100.00;102279.69;2613776;36;20030;-58
2022/09/22 09:37:20;;;;;;;5.10;1.65;;;;;;;16.92;100.00;102275.66;2612932;36;20034;-56
2022/09/22 09:39:49;;;;;;;7.03;1.40;;;;;;;17.22;100.00;102276.50;2612788;31;20038;-58
2022/09/22 09:42:22;;;;;;;7.32;1.33;;;;;;;17.29;100.00;102283.09;2613872;36;20034;-58
2022/09/22 09:44:52;;;;;;;5.15;1.80;;;;;;;17.33;100.00;102272.78;2612720;36;20038;-58
2022/09/22 09:47:44;;;;;;;5.70;1.92;;;;;;;17.24;100.00;102279.06;2614781;36;20031;-58
2022/09/22 09:50:13;;;;;;;6.28;1.90;;;;;;;17.47;100.00;102285.06;2612817;36;20035;-59
2022/09/22 09:52:41;;;;;;;3.28;1.50;;;;;;;17.59;100.00;102277.56;2612268;36;20023;-58
2022/09/22 09:55:24;;;;;;;4.03;1.55;;;;;;;17.75;100.00;102283.25;2613543;31;20600;-59
2022/09/22 09:58:04;;;;;;;3.78;1.63;;;;;;;17.94;100.00;102281.50;2612818;36;20035;-57
2022/09/22 10:00:30;;;;;;;2.92;1.50;;;;;;;17.74;100.00;102288.84;2614197;36;20045;-57
2022/09/22 10:03:07;;;;;;;3.45;1.50;;;;;;;17.56;100.00;102280.59;2613271;36;20062;-58
2022/09/22 10:05:38;;;;;;;6.68;1.50;;;;;;;17.90;100.00;102280.94;2613576;31;20057;-57
2022/09/22 10:08:17;;;;;;;3.08;1.45;;;;;;;18.05;100.00;102273.16;2613190;36;20030;-58
2022/09/22 10:10:46;;;;;;;2.40;1.40;;;;;;;18.21;92.58;102278.78;2611234;36;20031;-59
2022/09/22 10:13:21;;;;;;;;;;;;;;;18.05;98.71;102273.16;2614045;31;20045;-59
2022/09/22 10:16:16;;;;;;;3.17;1.45;;;;;;;18.11;100.00;102272.53;2612112;36;19958;-58
2022/09/22 10:18:48;;;;;;;7.82;2.10;;;;;;;18.30;88.38;102268.84;2613124;36;20502;-59
2022/09/22 10:21:19;;;;;;;5.35;2.33;;;;;;;18.38;100.00;102265.34;2612752;31;20065;-52
2022/09/22 10:23:49;;;;;;;5.97;2.10;;;;;;;18.06;88.06;102269.41;2611696;31;20045;-59
2022/09/22 10:26:21;;;;;;;2.88;2.13;;;;;;;18.44;92.25;102263.88;2612343;31;20420;-59
2022/09/22 10:29:10;;;;;;;3.45;2.20;;;;;;;18.40;99.34;102260.59;2616347;36;20430;-58
2022/09/22 10:31:39;;;;;;;3.67;2.47;;;;;;;18.45;87.37;102261.00;2614561;36;20130;-58
2022/09/22 10:34:31;;;;;;;4.22;2.50;;;;;;;18.34;88.56;102255.75;2614384;36;20051;-56
2022/09/22 10:37:00;;;;;;;4.18;2.35;;;;;;;18.42;86.67;102250.41;2615231;36;20030;-56
2022/09/22 10:39:37;;;;;;;10.00;2.78;;;;;;;18.36;88.30;102253.75;2614587;36;20026;-57
2022/09/22 10:42:13;;;;;;;5.13;3.28;;;;;;;18.58;82.96;102257.03;2615673;36;20057;-58
2022/09/22 10:44:42;;;;;;;5.35;2.80;;;;;;;18.60;93.50;102249.56;2615904;36;20027;-57
2022/09/22 10:47:22;;;;;;;5.25;2.22;;;;;;;19.04;79.35;102245.03;2616067;36;20030;-54
2022/09/22 10:50:12;;;;;;;4.10;2.42;;;;;;;19.25;79.44;102249.28;2615603;36;20054;-56
2022/09/22 10:52:50;;;;;;;4.35;2.75;;;;;;;18.86;85.21;102236.00;2614759;36;20041;-55
2022/09/22 10:55:26;;;;;;;5.60;3.03;;;;;;;18.63;77.38;102238.34;2615200;36;20038;-52
2022/09/22 10:58:30;;;;;;;7.13;1.83;;;;;;;18.55;65.57;102237.25;2615280;36;20122;-53
2022/09/22 11:01:11;;;;;;;4.95;2.35;;;;;;;18.58;72.82;102230.63;2615265;36;20037;-51
2022/09/22 11:03:58;;;;;;;6.25;3.15;;;;;;;18.88;82.61;102231.28;2616317;36;20136;-53
2022/09/22 11:12:23;;;;;;;4.55;2.25;;;;;;;18.90;73.51;102221.94;2614940;36;20555;-52
2022/09/22 11:15:12;;;;;;;4.32;2.10;;;;;;;18.58;71.46;102219.72;2605990;36;20034;-53
2022/09/22 11:18:11;;;;;;;4.70;1.98;;;;;;;18.76;82.08;102221.56;2615055;36;20448;-54
2022/09/22 11:20:41;;;;;;;4.53;2.00;;;;;;;18.74;79.19;102219.88;2615463;36;20056;-49
2022/09/22 11:23:31;;;;;;;2.78;1.75;;;;;;;19.22;79.24;102214.97;2614061;36;20555;-55
2022/09/22 11:26:19;;;;;;;5.35;2.17;;;;;;;19.18;72.65;102207.28;2614532;36;20042;-54
2022/09/22 11:29:01;;;;;;;4.18;2.20;;;;;;;19.40;75.37;102216.81;2614952;31;20034;-53
2022/09/22 11:31:41;;;;;;;3.70;2.40;;;;;;;19.42;68.40;102201.13;2615300;36;20033;-54
2022/09/22 11:34:29;;;;;;;4.22;2.45;;;;;;;19.48;75.21;102205.94;2613760;36;20035;-55
2022/09/22 11:37:24;;;;;;;3.60;2.33;;;;;;;19.21;65.07;102199.63;2615382;36;20038;-52
2022/09/22 11:40:07;;;;;;;3.13;2.28;;;;;;;19.20;66.83;102191.63;2615598;36;20779;-55
2022/09/22 11:42:46;;;;;;;5.45;2.03;;;;;;;19.71;81.27;102195.31;2613951;31;20178;-52
2022/09/22 11:45:28;;;;;;;5.88;2.05;;;;;;;19.55;67.91;102190.63;2615144;36;20145;-53
2022/09/22 11:48:08;;;;;;;2.88;2.08;;;;;;;19.72;65.96;102191.53;2615402;36;20030;-56
2022/09/22 11:51:05;;;;;;;3.05;2.20;;;;;;;19.72;65.51;102188.81;2615639;36;20447;-50
2022/09/22 11:53:51;;;;;;;3.58;2.25;;;;;;;19.92;71.07;102181.25;2614657;36;20515;-53
2022/09/22 11:56:35;;;;;;;3.55;1.55;;;;;;;19.97;61.31;102177.16;2615125;36;20035;-52
2022/09/22 11:59:10;;;;;;;2.80;1.70;;;;;;;19.64;62.90;102179.72;2614063;36;20042;-54
2022/09/22 12:01:42;;;;;;;4.07;1.63;;;;;;;19.63;77.36;102180.75;2614912;36;20030;-48